Time;durP1;ratioP1;P1;durP2;ratioP2;P2;SDS_P1;SDS_P2;PMS_P1;PMS_P2;Temp;Humidity;BMP_temperature;BMP_pressure;BME280_temperature;BME280_humidity;BME280_pressure;Samples;Min_cycle;Max_cycle;Signal;HPM_P1;HPM_P2
2024/01/04 00:00:32;;;;;;;9.40;4.25;;;6.90;99.90;;;;;;5035826;28;20030;-90
2024/01/04 00:02:57;;;;;;;8.63;4.15;;;6.90;99.90;;;;;;5035741;28;20048;-89
2024/01/04 00:05:24;;;;;;;9.85;4.28;;;6.90;99.90;;;;;;5035212;28;20025;-90
2024/01/04 00:07:50;;;;;;;10.02;4.45;;;6.90;99.90;;;;;;5035310;28;20026;-90
2024/01/04 00:10:17;;;;;;;6.35;4.05;;;6.90;99.90;;;;;;5035324;28;20068;-90
2024/01/04 00:12:44;;;;;;;8.63;4.70;;;6.90;99.90;;;;;;5035754;28;20033;-90
2024/01/04 00:15:10;;;;;;;5.45;3.20;;;6.90;99.90;;;;;;5035175;28;20538;-90
2024/01/04 00:17:36;;;;;;;5.22;3.53;;;6.90;99.90;;;;;;5035499;28;20025;-89
2024/01/04 00:20:02;;;;;;;7.55;4.50;;;6.80;99.90;;;;;;5035361;28;20030;-90
2024/01/04 00:22:28;;;;;;;7.78;4.03;;;6.80;99.90;;;;;;5034799;28;20030;-90
2024/01/04 00:24:54;;;;;;;7.60;4.38;;;6.80;99.90;;;;;;5035170;28;20029;-91
2024/01/04 00:27:20;;;;;;;8.95;5.63;;;6.90;99.90;;;;;;5034511;28;20036;-91
2024/01/04 00:29:46;;;;;;;8.77;6.00;;;6.80;99.90;;;;;;5034809;28;20022;-90
2024/01/04 00:32:12;;;;;;;6.75;5.00;;;6.80;99.90;;;;;;5032423;28;20033;-91
2024/01/04 00:34:37;;;;;;;11.48;5.82;;;6.80;99.90;;;;;;5034708;28;20144;-90
2024/01/04 00:37:04;;;;;;;9.93;5.72;;;6.80;99.90;;;;;;5034907;28;20026;-89
2024/01/04 00:39:30;;;;;;;8.70;5.00;;;6.70;99.90;;;;;;5034910;28;20029;-90
2024/01/04 00:41:56;;;;;;;11.07;5.68;;;6.70;99.90;;;;;;5035079;28;20048;-90
2024/01/04 00:44:22;;;;;;;10.27;5.93;;;6.70;99.90;;;;;;5034723;28;20029;-90
2024/01/04 00:46:48;;;;;;;9.45;5.88;;;6.70;99.90;;;;;;5034896;28;20116;-91
2024/01/04 00:49:13;;;;;;;7.32;4.80;;;6.70;99.90;;;;;;5034542;28;20372;-90
2024/01/04 00:51:41;;;;;;;8.63;5.30;;;6.60;99.90;;;;;;5034554;28;20032;-90
2024/01/04 00:54:06;;;;;;;7.40;5.45;;;6.60;99.90;;;;;;5034305;28;20029;-90
2024/01/04 00:56:33;;;;;;;6.25;4.85;;;6.60;99.90;;;;;;5035146;28;20200;-91
2024/01/04 00:59:00;;;;;;;8.48;5.15;;;6.60;99.90;;;;;;5036003;28;20064;-91
2024/01/04 01:01:26;;;;;;;6.90;5.70;;;6.60;99.90;;;;;;5035659;28;20018;-91
2024/01/04 01:03:52;;;;;;;11.98;6.10;;;6.50;99.90;;;;;;5034989;28;20029;-90
2024/01/04 01:06:17;;;;;;;9.73;6.05;;;6.60;99.90;;;;;;5034946;28;20040;-91
2024/01/04 01:08:43;;;;;;;5.57;4.50;;;6.50;99.90;;;;;;5034438;28;20021;-89
2024/01/04 01:11:09;;;;;;;6.20;4.75;;;6.50;99.90;;;;;;5034219;28;20025;-90
2024/01/04 01:13:35;;;;;;;11.52;5.20;;;6.50;99.90;;;;;;5034109;28;20033;-90
2024/01/04 01:16:01;;;;;;;9.95;5.20;;;6.50;99.90;;;;;;5034155;28;20022;-90
2024/01/04 01:18:27;;;;;;;7.93;5.38;;;6.50;99.90;;;;;;5034361;28;20059;-90
2024/01/04 01:20:54;;;;;;;6.68;5.15;;;6.50;99.90;;;;;;5034237;28;20476;-90
2024/01/04 01:23:19;;;;;;;6.78;5.13;;;6.50;99.90;;;;;;5050893;28;20035;-90
2024/01/04 01:25:45;;;;;;;7.35;5.35;;;6.50;99.90;;;;;;5053798;28;20025;-91
2024/01/04 01:28:11;;;;;;;7.00;4.40;;;6.50;99.90;;;;;;5053789;28;20590;-90
2024/01/04 01:30:37;;;;;;;6.38;4.18;;;6.50;99.90;;;;;;5053929;28;20021;-90
2024/01/04 01:33:03;;;;;;;6.35;5.05;;;6.50;99.90;;;;;;5053557;28;20144;-91
2024/01/04 01:35:28;;;;;;;5.95;4.55;;;6.50;99.90;;;;;;5054246;28;20037;-91
2024/01/04 01:37:54;;;;;;;6.10;4.22;;;6.40;99.90;;;;;;5053955;28;20499;-90
2024/01/04 01:40:21;;;;;;;7.03;4.75;;;6.40;99.90;;;;;;5053953;28;20033;-90
2024/01/04 01:42:50;;;;;;;4.97;3.40;;;6.40;99.90;;;;;;5053415;28;20017;-91
2024/01/04 01:45:16;;;;;;;4.75;3.75;;;6.40;99.90;;;;;;5053488;28;20063;-90
2024/01/04 01:47:45;;;;;;;5.45;3.55;;;6.40;99.90;;;;;;5046529;28;20018;-90
2024/01/04 01:50:11;;;;;;;4.13;3.72;;;6.40;99.90;;;;;;5031883;28;20025;-90
2024/01/04 01:52:37;;;;;;;7.30;4.10;;;6.40;99.90;;;;;;5033082;28;20036;-90
2024/01/04 01:55:03;;;;;;;5.85;4.35;;;6.40;99.90;;;;;;5033144;28;20033;-90
2024/01/04 01:57:33;;;;;;;5.15;4.55;;;6.50;99.90;;;;;;5033484;28;20033;-91
2024/01/04 02:00:00;;;;;;;4.68;4.20;;;6.50;99.90;;;;;;5033623;28;20473;-90
2024/01/04 02:02:27;;;;;;;7.32;5.38;;;6.50;99.90;;;;;;5033029;28;20025;-91
2024/01/04 02:04:53;;;;;;;6.07;5.38;;;6.50;99.90;;;;;;5033025;28;20021;-91
2024/01/04 02:07:19;;;;;;;6.00;5.20;;;6.50;99.90;;;;;;5032882;28;20025;-91
2024/01/04 02:09:45;;;;;;;6.70;5.35;;;6.50;99.90;;;;;;5033378;28;20032;-91
2024/01/04 02:12:13;;;;;;;10.40;5.80;;;6.50;99.90;;;;;;5032877;28;20030;-90
2024/01/04 02:14:39;;;;;;;8.07;5.50;;;6.50;99.90;;;;;;5032010;28;20508;-90
2024/01/04 02:17:06;;;;;;;7.38;4.68;;;6.50;99.90;;;;;;5032553;28;20025;-90
2024/01/04 02:19:32;;;;;;;7.95;5.28;;;6.50;99.90;;;;;;5032402;28;20029;-90
2024/01/04 02:21:58;;;;;;;7.28;5.28;;;6.50;99.90;;;;;;5031173;28;20117;-90
2024/01/04 02:24:25;;;;;;;6.10;5.00;;;6.60;99.90;;;;;;5033418;28;20029;-91
2024/01/04 02:26:51;;;;;;;6.53;5.28;;;6.50;99.90;;;;;;5034572;28;20017;-90
2024/01/04 02:29:17;;;;;;;8.90;4.68;;;6.60;99.90;;;;;;5032778;28;20493;-91
2024/01/04 02:31:44;;;;;;;7.57;5.40;;;6.60;99.90;;;;;;5032342;28;20028;-90
2024/01/04 02:34:10;;;;;;;6.38;5.68;;;6.60;99.90;;;;;;5032729;28;20045;-93
2024/01/04 02:36:37;;;;;;;7.15;5.32;;;6.60;99.90;;;;;;5037318;28;20563;-91
2024/01/04 02:39:04;;;;;;;7.80;5.38;;;6.60;99.90;;;;;;5042124;28;20057;-91
2024/01/04 02:41:30;;;;;;;6.30;5.22;;;6.60;99.90;;;;;;5023789;28;20022;-91
2024/01/04 02:43:56;;;;;;;7.45;5.20;;;6.60;99.90;;;;;;5039831;28;20535;-91
2024/01/04 02:46:22;;;;;;;5.57;4.97;;;6.60;99.90;;;;;;5035797;28;20030;-90
2024/01/04 02:48:50;;;;;;;8.07;6.50;;;6.60;99.90;;;;;;5034375;28;20087;-90
2024/01/04 02:51:16;;;;;;;9.43;6.43;;;6.50;99.90;;;;;;5031069;28;20030;-90
2024/01/04 02:53:43;;;;;;;8.50;5.70;;;6.60;99.90;;;;;;5033408;28;20036;-90
2024/01/04 02:56:08;;;;;;;6.50;5.40;;;6.50;99.90;;;;;;5033857;28;20044;-91
2024/01/04 02:58:34;;;;;;;6.65;5.95;;;6.60;99.90;;;;;;5034582;28;20136;-92
2024/01/04 03:01:00;;;;;;;8.70;4.85;;;6.60;99.90;;;;;;5034351;28;20045;-90
2024/01/04 03:03:26;;;;;;;8.57;5.63;;;6.60;99.90;;;;;;5034331;28;20056;-91
2024/01/04 03:05:51;;;;;;;7.07;5.10;;;6.60;99.90;;;;;;5032822;28;20022;-91
2024/01/04 03:08:17;;;;;;;6.93;5.15;;;6.60;99.90;;;;;;5032827;28;20585;-91
2024/01/04 03:10:43;;;;;;;6.53;5.15;;;6.60;99.90;;;;;;5034089;28;20140;-90
2024/01/04 03:13:13;;;;;;;7.30;5.05;;;6.60;99.90;;;;;;5032596;28;20056;-91
2024/01/04 03:15:41;;;;;;;5.00;3.42;;;6.60;99.90;;;;;;5032531;28;20029;-90
2024/01/04 03:18:07;;;;;;;4.50;4.05;;;6.60;99.90;;;;;;5031377;28;20036;-91
2024/01/04 03:20:33;;;;;;;3.70;3.38;;;6.50;99.90;;;;;;5031569;28;20026;-91
2024/01/04 03:22:58;;;;;;;4.03;3.50;;;6.50;99.90;;;;;;5032004;28;20071;-89
2024/01/04 03:25:24;;;;;;;6.15;3.60;;;6.50;99.90;;;;;;5032771;28;20030;-90
2024/01/04 03:27:50;;;;;;;4.40;3.75;;;6.50;99.90;;;;;;5035292;28;20034;-90
2024/01/04 03:30:16;;;;;;;4.85;3.90;;;6.50;99.90;;;;;;5035607;28;20045;-89
2024/01/04 03:32:41;;;;;;;5.35;4.13;;;6.50;99.90;;;;;;5035505;28;20076;-90
2024/01/04 03:35:08;;;;;;;4.72;4.07;;;6.50;99.90;;;;;;5036157;28;20034;-91
2024/01/04 03:37:34;;;;;;;4.22;3.63;;;6.50;99.90;;;;;;5035517;28;20095;-91
2024/01/04 03:40:00;;;;;;;4.35;3.95;;;6.50;99.90;;;;;;5031542;28;20026;-91
2024/01/04 03:42:25;;;;;;;4.07;3.67;;;6.50;99.90;;;;;;5035259;28;20025;-91
2024/01/04 03:44:51;;;;;;;3.03;2.75;;;6.50;99.90;;;;;;5035697;28;20030;-90
2024/01/04 03:47:17;;;;;;;4.10;2.58;;;6.50;99.90;;;;;;5034752;28;20029;-90
2024/01/04 03:49:42;;;;;;;2.90;2.60;;;6.50;99.90;;;;;;5035215;28;20057;-91
2024/01/04 03:52:08;;;;;;;5.90;3.20;;;6.50;99.90;;;;;;5035112;28;20032;-89
2024/01/04 03:54:34;;;;;;;3.85;2.50;;;6.50;99.90;;;;;;5035085;28;20147;-90
2024/01/04 03:56:59;;;;;;;3.78;3.13;;;6.60;99.90;;;;;;5035047;28;20024;-91
2024/01/04 03:59:25;;;;;;;3.38;2.95;;;6.50;99.90;;;;;;5035052;28;20122;-90
2024/01/04 04:01:51;;;;;;;1.95;1.80;;;6.60;99.90;;;;;;5034928;28;20610;-90
2024/01/04 04:04:17;;;;;;;2.67;2.47;;;6.60;99.90;;;;;;5035135;28;20489;-90
2024/01/04 04:06:43;;;;;;;2.17;1.98;;;6.60;99.90;;;;;;5036195;28;20091;-90
2024/01/04 04:09:08;;;;;;;1.90;1.80;;;6.60;99.90;;;;;;5035158;28;20025;-91
2024/01/04 04:11:34;;;;;;;5.38;1.92;;;6.60;99.90;;;;;;5034500;28;20029;-90
2024/01/04 04:14:00;;;;;;;4.13;2.30;;;6.60;99.90;;;;;;5035869;28;20041;-90
2024/01/04 04:16:26;;;;;;;4.53;2.95;;;6.50;99.90;;;;;;5034992;28;20032;-90
2024/01/04 04:18:52;;;;;;;2.45;2.25;;;6.50;99.90;;;;;;5034977;28;20051;-90
2024/01/04 04:21:22;;;;;;;6.85;2.78;;;6.60;99.90;;;;;;5034881;28;20032;-90
2024/01/04 04:23:49;;;;;;;6.63;2.60;;;6.60;99.90;;;;;;5034745;28;20029;-90
2024/01/04 04:26:22;;;;;;;5.75;2.88;;;6.60;99.90;;;;;;5034719;28;20033;-90
2024/01/04 04:28:48;;;;;;;5.18;2.92;;;6.60;99.90;;;;;;5033973;28;20405;-92
2024/01/04 04:31:15;;;;;;;3.78;2.58;;;6.60;99.90;;;;;;5034597;28;20025;-90
2024/01/04 04:33:43;;;;;;;8.90;3.42;;;6.60;99.90;;;;;;5034564;28;20102;-90
2024/01/04 04:36:10;;;;;;;5.82;3.30;;;6.60;99.90;;;;;;5034583;28;20481;-91
2024/01/04 04:38:38;;;;;;;3.20;2.60;;;6.60;99.90;;;;;;5018013;28;20412;-90
2024/01/04 04:41:05;;;;;;;4.38;2.97;;;6.60;99.90;;;;;;5034701;28;20033;-91
2024/01/04 04:43:31;;;;;;;7.53;3.50;;;6.60;99.90;;;;;;5034352;28;20029;-90
2024/01/04 04:45:57;;;;;;;5.05;3.10;;;6.60;99.90;;;;;;5033649;28;20083;-90
2024/01/04 04:48:23;;;;;;;7.90;3.45;;;6.60;99.90;;;;;;5033978;28;20029;-89
2024/01/04 04:50:53;;;;;;;7.13;4.10;;;6.60;99.90;;;;;;5034411;28;20022;-90
2024/01/04 04:53:20;;;;;;;7.13;4.20;;;6.60;99.90;;;;;;5034140;28;20025;-90
2024/01/04 04:55:46;;;;;;;4.97;4.03;;;6.60;99.90;;;;;;5033790;28;20029;-90
2024/01/04 04:58:11;;;;;;;5.60;2.90;;;6.60;99.90;;;;;;5034127;28;20029;-90
2024/01/04 05:00:37;;;;;;;6.90;3.80;;;6.60;99.90;;;;;;5034560;28;20718;-89
2024/01/04 05:03:03;;;;;;;5.22;3.60;;;6.60;99.90;;;;;;5033926;28;20036;-88
2024/01/04 05:05:29;;;;;;;6.65;2.78;;;6.60;99.90;;;;;;5033708;28;20377;-89
2024/01/04 05:07:55;;;;;;;6.25;2.47;;;6.60;99.90;;;;;;5033416;28;20029;-88
2024/01/04 05:10:22;;;;;;;7.95;2.75;;;6.60;99.90;;;;;;5033595;28;20022;-90
2024/01/04 05:12:48;;;;;;;5.63;2.78;;;6.60;99.90;;;;;;5034072;28;20025;-89
2024/01/04 05:15:14;;;;;;;10.13;1.77;;;6.70;99.90;;;;;;5033682;28;20037;-89
2024/01/04 05:17:40;;;;;;;3.50;2.05;;;6.70;99.90;;;;;;5033675;28;20574;-88
2024/01/04 05:20:06;;;;;;;9.15;2.00;;;6.70;99.90;;;;;;5033392;28;20029;-90
2024/01/04 05:22:32;;;;;;;3.22;2.55;;;6.70;99.90;;;;;;5033724;28;20029;-91
2024/01/04 05:24:57;;;;;;;10.02;2.30;;;6.60;99.90;;;;;;5033437;28;20393;-90
2024/01/04 05:27:23;;;;;;;7.45;2.55;;;6.70;99.90;;;;;;5033315;28;20025;-89
2024/01/04 05:29:49;;;;;;;7.22;2.20;;;6.70;99.90;;;;;;5032794;28;20419;-90
2024/01/04 05:32:15;;;;;;;17.25;2.10;;;6.60;99.90;;;;;;5033249;28;20028;-90
2024/01/04 05:34:44;;;;;;;5.38;2.05;;;6.70;99.90;;;;;;5032846;28;20046;-90
2024/01/04 05:37:09;;;;;;;7.45;1.65;;;6.60;99.90;;;;;;5033208;28;20131;-89
2024/01/04 05:39:35;;;;;;;6.20;1.48;;;6.70;99.90;;;;;;5033997;28;20025;-89
2024/01/04 05:42:01;;;;;;;15.20;2.55;;;6.70;99.90;;;;;;5033715;28;20072;-89
2024/01/04 05:44:27;;;;;;;12.25;1.67;;;6.70;99.90;;;;;;5033675;28;20036;-89
2024/01/04 05:46:53;;;;;;;20.67;2.53;;;6.70;99.90;;;;;;5038436;28;20021;-88
2024/01/04 05:49:18;;;;;;;8.55;2.53;;;6.70;99.90;;;;;;5037770;28;20034;-88
2024/01/04 05:51:44;;;;;;;8.15;1.50;;;6.70;99.90;;;;;;5036983;28;20060;-89
2024/01/04 05:54:10;;;;;;;7.05;1.40;;;6.60;99.90;;;;;;5036463;28;20034;-89
2024/01/04 05:56:36;;;;;;;5.50;1.65;;;6.60;99.90;;;;;;5037296;28;20113;-90
2024/01/04 05:59:02;;;;;;;7.95;1.60;;;6.60;99.90;;;;;;5034765;28;20055;-90
2024/01/04 06:01:28;;;;;;;9.63;1.63;;;6.70;99.90;;;;;;5034045;28;20064;-89
2024/01/04 06:03:54;;;;;;;8.68;1.10;;;6.70;99.90;;;;;;5034233;28;20044;-90
2024/01/04 06:06:20;;;;;;;5.93;1.20;;;6.60;99.90;;;;;;5033349;28;20030;-89
2024/01/04 06:08:45;;;;;;;13.68;1.88;;;6.60;99.90;;;;;;5033105;28;20037;-90
2024/01/04 06:11:11;;;;;;;7.22;1.10;;;6.60;99.90;;;;;;5033129;28;20114;-89
2024/01/04 06:13:37;;;;;;;5.00;1.40;;;6.60;99.90;;;;;;5033080;28;20040;-89
2024/01/04 06:16:07;;;;;;;4.38;1.15;;;6.60;99.90;;;;;;5033031;28;20481;-90
2024/01/04 06:18:34;;;;;;;2.92;1.00;;;6.60;99.90;;;;;;5032290;28;20033;-90
2024/01/04 06:20:59;;;;;;;3.60;1.00;;;6.60;99.90;;;;;;5032144;28;20025;-91
2024/01/04 06:23:26;;;;;;;3.47;0.95;;;6.60;99.90;;;;;;5032387;28;20499;-88
2024/01/04 06:25:51;;;;;;;6.15;1.40;;;6.60;99.90;;;;;;5032237;28;20033;-90
2024/01/04 06:28:17;;;;;;;6.40;1.20;;;6.60;99.90;;;;;;5032683;28;20029;-89
2024/01/04 06:30:43;;;;;;;5.82;1.17;;;6.60;99.90;;;;;;5032164;28;20029;-91
2024/01/04 06:33:08;;;;;;;5.53;1.17;;;6.50;99.90;;;;;;5031748;28;20056;-89
2024/01/04 06:35:34;;;;;;;3.35;1.00;;;6.50;99.90;;;;;;5032388;28;20037;-89
2024/01/04 06:38:02;;;;;;;7.07;1.17;;;6.50;99.90;;;;;;5031838;28;20392;-93
2024/01/04 06:40:28;;;;;;;6.28;1.45;;;6.60;99.90;;;;;;5031940;28;20029;-89
2024/01/04 06:42:55;;;;;;;9.98;1.30;;;6.50;99.90;;;;;;5032060;28;20021;-89
2024/01/04 06:45:22;;;;;;;5.57;1.08;;;6.50;99.90;;;;;;5032420;28;20029;-89
2024/01/04 06:47:48;;;;;;;8.73;1.13;;;6.50;99.90;;;;;;5032434;28;20053;-88
2024/01/04 06:50:14;;;;;;;6.75;1.50;;;6.50;99.90;;;;;;5032567;28;20095;-89
2024/01/04 06:52:40;;;;;;;9.20;1.67;;;6.50;99.90;;;;;;5032248;28;20030;-89
2024/01/04 06:55:06;;;;;;;7.47;1.13;;;6.50;99.90;;;;;;5031943;28;20038;-89
2024/01/04 06:57:32;;;;;;;6.45;1.52;;;6.50;99.90;;;;;;5031687;28;20039;-89
2024/01/04 06:59:57;;;;;;;5.82;0.90;;;6.50;99.90;;;;;;5031914;28;20088;-89
2024/01/04 07:02:23;;;;;;;6.15;1.38;;;6.50;99.90;;;;;;5032441;28;20052;-89
2024/01/04 07:04:49;;;;;;;8.43;1.27;;;6.50;99.90;;;;;;5031929;28;20121;-90
2024/01/04 07:07:14;;;;;;;7.03;1.20;;;6.50;99.90;;;;;;5031648;28;20030;-90
2024/01/04 07:09:40;;;;;;;3.20;1.00;;;6.50;99.90;;;;;;5031638;28;20033;-90
2024/01/04 07:12:07;;;;;;;4.93;0.93;;;6.50;99.90;;;;;;5031320;28;20022;-90
2024/01/04 07:14:38;;;;;;;5.85;1.00;;;6.50;99.90;;;;;;5031562;28;20060;-90
2024/01/04 07:17:04;;;;;;;7.15;1.40;;;6.50;99.90;;;;;;5032436;28;20048;-90
2024/01/04 07:19:29;;;;;;;5.95;1.40;;;6.50;99.90;;;;;;5031598;28;20038;-90
2024/01/04 07:21:56;;;;;;;4.55;1.13;;;6.50;99.90;;;;;;5031710;28;20576;-89
2024/01/04 07:24:22;;;;;;;7.60;0.98;;;6.50;99.90;;;;;;5031257;28;20037;-90
2024/01/04 07:26:48;;;;;;;7.43;1.50;;;6.50;99.90;;;;;;5031520;28;20194;-90
2024/01/04 07:29:13;;;;;;;8.30;1.15;;;6.40;99.90;;;;;;5031594;28;20085;-90
2024/01/04 07:31:39;;;;;;;15.77;1.83;;;6.50;99.90;;;;;;5031438;28;20024;-89
2024/01/04 07:34:06;;;;;;;8.32;1.63;;;6.50;99.90;;;;;;5030969;28;20096;-89
2024/01/04 07:36:34;;;;;;;11.75;1.98;;;6.50;99.90;;;;;;5033362;28;20033;-90
2024/01/04 07:39:00;;;;;;;9.02;1.73;;;6.50;99.90;;;;;;5032686;28;20021;-90
2024/01/04 07:41:26;;;;;;;5.40;2.30;;;6.50;99.90;;;;;;5032025;28;20057;-90
2024/01/04 07:43:52;;;;;;;6.22;1.85;;;6.60;99.90;;;;;;5031536;28;20073;-90
2024/01/04 07:46:18;;;;;;;8.13;1.30;;;6.60;99.90;;;;;;5031148;28;20060;-91
2024/01/04 07:48:44;;;;;;;3.50;1.50;;;6.60;99.90;;;;;;5031566;28;20022;-90
2024/01/04 07:51:10;;;;;;;6.97;1.58;;;6.50;99.90;;;;;;5031198;28;20167;-90
2024/01/04 07:53:36;;;;;;;6.75;1.67;;;6.60;99.90;;;;;;5031311;28;20048;-91
2024/01/04 07:56:01;;;;;;;7.05;2.65;;;6.60;99.90;;;;;;5031914;28;20473;-90
2024/01/04 07:58:27;;;;;;;4.90;1.35;;;6.50;99.90;;;;;;5031443;28;20037;-91
2024/01/04 08:00:53;;;;;;;2.47;0.82;;;6.50;99.90;;;;;;5030928;28;20079;-91
2024/01/04 08:03:18;;;;;;;4.40;1.13;;;6.50;99.90;;;;;;5032807;28;20495;-90
2024/01/04 08:05:44;;;;;;;4.10;1.08;;;6.50;99.90;;;;;;5033784;28;20030;-91
2024/01/04 08:08:10;;;;;;;4.68;1.25;;;6.50;99.90;;;;;;5033212;28;20469;-92
2024/01/04 08:10:36;;;;;;;4.95;1.00;;;6.50;99.90;;;;;;5030410;28;20114;-91
2024/01/04 08:13:01;;;;;;;4.18;1.10;;;6.50;99.90;;;;;;5033831;28;20538;-91
2024/01/04 08:15:29;;;;;;;5.35;0.90;;;6.50;99.90;;;;;;5035572;28;20030;-91
2024/01/04 08:17:54;;;;;;;6.65;1.17;;;6.40;99.90;;;;;;5035310;28;20090;-91
2024/01/04 08:20:20;;;;;;;6.40;0.73;;;6.40;99.90;;;;;;5034507;28;20105;-90
2024/01/04 08:22:46;;;;;;;4.80;1.10;;;6.40;99.90;;;;;;5034708;28;20028;-90
2024/01/04 08:25:12;;;;;;;4.95;1.10;;;6.40;99.90;;;;;;5035616;28;20025;-89
2024/01/04 08:27:37;;;;;;;3.35;0.80;;;6.40;99.90;;;;;;5035049;28;20041;-89
2024/01/04 08:30:03;;;;;;;9.25;1.52;;;6.40;99.90;;;;;;5035020;28;20478;-89
2024/01/04 08:32:29;;;;;;;7.35;0.90;;;6.40;99.90;;;;;;5034201;28;20431;-90
2024/01/04 08:34:54;;;;;;;5.10;1.05;;;6.40;99.90;;;;;;5034747;28;20049;-89
2024/01/04 08:37:20;;;;;;;8.45;1.30;;;6.40;99.90;;;;;;5035065;28;20388;-90
2024/01/04 08:39:46;;;;;;;4.75;1.23;;;6.30;99.90;;;;;;5034779;28;20449;-91
2024/01/04 08:42:12;;;;;;;9.18;1.10;;;6.40;99.90;;;;;;5035083;28;20026;-90
2024/01/04 08:44:38;;;;;;;8.57;1.15;;;6.30;99.90;;;;;;5034731;28;20127;-90
2024/01/04 08:47:04;;;;;;;6.18;1.10;;;6.30;99.90;;;;;;5035098;28;20040;-90
2024/01/04 08:49:30;;;;;;;5.97;1.00;;;6.30;99.90;;;;;;5034776;28;20033;-93
2024/01/04 08:51:56;;;;;;;9.05;1.17;;;6.30;99.90;;;;;;5033480;28;20469;-89
2024/01/04 08:54:24;;;;;;;14.10;1.30;;;6.40;99.90;;;;;;5035901;28;20034;-90
2024/01/04 08:56:51;;;;;;;6.18;1.17;;;6.40;99.90;;;;;;5031531;28;20136;-90
2024/01/04 08:59:19;;;;;;;11.82;1.25;;;6.40;99.90;;;;;;5039513;28;20036;-91
2024/01/04 09:01:44;;;;;;;6.10;0.90;;;6.40;99.90;;;;;;5037075;28;20041;-91
2024/01/04 09:04:10;;;;;;;8.27;1.35;;;6.40;99.90;;;;;;5040124;28;20060;-91
2024/01/04 09:06:36;;;;;;;4.18;1.00;;;6.40;99.90;;;;;;5035947;28;20025;-90
2024/01/04 09:09:05;;;;;;;7.75;2.22;;;6.40;99.90;;;;;;5033169;28;20029;-89
2024/01/04 09:11:50;;;;;;;;;;;;;;;;;;;;;
2024/01/04 09:14:16;;;;;;;8.05;1.42;;;6.50;99.90;;;;;;5033989;28;20037;-88
2024/01/04 09:16:43;;;;;;;4.85;0.88;;;6.50;99.90;;;;;;5043616;28;20571;-90
2024/01/04 09:19:19;;;;;;;8.60;1.00;;;6.50;99.90;;;;;;5033530;28;20500;-90
2024/01/04 09:21:49;;;;;;;8.68;1.00;;;6.50;99.90;;;;;;5028348;28;20030;-89
2024/01/04 09:24:15;;;;;;;6.60;1.10;;;6.50;99.90;;;;;;5032768;28;20022;-89
2024/01/04 09:26:44;;;;;;;14.07;1.38;;;6.60;99.90;;;;;;5046078;28;20272;-95
2024/01/04 09:29:17;;;;;;;6.85;1.35;;;6.60;99.90;;;;;;5032468;28;20022;-96
2024/01/04 09:31:43;;;;;;;4.93;1.10;;;6.60;99.90;;;;;;5048765;28;20037;-96
2024/01/04 09:34:10;;;;;;;8.52;1.25;;;6.60;99.90;;;;;;5047590;28;20064;-95
2024/01/04 09:36:36;;;;;;;8.80;1.35;;;6.60;99.90;;;;;;5046313;28;20108;-95
2024/01/04 09:39:17;;;;;;;8.25;1.40;;;6.60;99.90;;;;;;5047222;28;20021;-95
2024/01/04 09:41:47;;;;;;;3.95;1.33;;;6.70;99.90;;;;;;5047756;28;20105;-95
2024/01/04 09:44:14;;;;;;;8.55;1.63;;;6.60;99.90;;;;;;5045207;28;20024;-96
2024/01/04 09:46:41;;;;;;;9.02;1.90;;;6.60;99.90;;;;;;5029619;28;20029;-95
2024/01/04 09:49:08;;;;;;;16.70;1.92;;;6.70;99.90;;;;;;5043560;28;20018;-95
2024/01/04 09:51:38;;;;;;;8.00;1.15;;;6.70;99.90;;;;;;5040769;28;20029;-96
2024/01/04 09:54:10;;;;;;;10.27;2.40;;;6.70;99.90;;;;;;5063576;28;20068;-96
2024/01/04 09:56:43;;;;;;;11.57;1.65;;;6.70;99.90;;;;;;5044025;28;20029;-96
2024/01/04 09:59:12;;;;;;;12.30;1.98;;;6.70;99.90;;;;;;5045096;28;20037;-96
2024/01/04 10:01:38;;;;;;;8.45;1.20;;;6.70;99.90;;;;;;5043237;28;20025;-95
2024/01/04 10:14:20;;;;;;;10.65;1.73;;;6.80;99.90;;;;;;5033067;23;20073;-82
2024/01/04 10:16:48;;;;;;;13.75;1.85;;;6.80;99.90;;;;;;4991733;28;20045;-84
2024/01/04 10:19:14;;;;;;;17.00;2.05;;;6.90;99.90;;;;;;4994595;28;20018;-83
2024/01/04 10:21:40;;;;;;;20.10;1.95;;;6.90;99.90;;;;;;5012395;28;20113;-82
2024/01/04 10:24:06;;;;;;;10.18;1.73;;;7.00;99.90;;;;;;4994895;28;20129;-82
2024/01/04 10:26:32;;;;;;;11.30;1.65;;;7.10;99.90;;;;;;5000132;28;20030;-83
2024/01/04 10:29:00;;;;;;;19.48;2.13;;;7.40;99.90;;;;;;4995168;28;20526;-84
2024/01/04 10:31:26;;;;;;;22.55;1.70;;;7.70;99.90;;;;;;5011600;28;20038;-81
2024/01/04 10:33:59;;;;;;;14.73;1.85;;;8.00;99.90;;;;;;4994335;28;20053;-81
2024/01/04 10:36:28;;;;;;;13.15;1.52;;;8.30;99.90;;;;;;5011629;28;20034;-82
2024/01/04 10:39:06;;;;;;;16.30;2.22;;;8.50;99.90;;;;;;5012550;28;20025;-83
2024/01/04 10:41:33;;;;;;;14.77;1.98;;;8.60;99.90;;;;;;4991132;28;20030;-82
2024/01/04 10:44:08;;;;;;;14.57;1.90;;;8.60;99.90;;;;;;4991258;28;20034;-82
2024/01/04 10:46:36;;;;;;;18.45;1.88;;;8.60;99.90;;;;;;4998160;28;20022;-83
2024/01/04 10:49:03;;;;;;;15.25;2.05;;;8.60;99.90;;;;;;4980339;28;20075;-80
2024/01/04 10:51:32;;;;;;;16.35;2.08;;;8.60;99.90;;;;;;5012038;28;20455;-83
2024/01/04 10:54:02;;;;;;;13.45;2.17;;;8.60;99.90;;;;;;5013806;28;20542;-82
2024/01/04 10:56:35;;;;;;;14.65;2.33;;;8.60;99.90;;;;;;4994058;28;20026;-82
2024/01/04 10:59:03;;;;;;;20.10;1.80;;;8.60;99.90;;;;;;4995222;28;20045;-82
2024/01/04 11:01:30;;;;;;;14.10;1.88;;;8.70;99.90;;;;;;4994389;28;20128;-82
2024/01/04 11:03:56;;;;;;;13.45;2.40;;;8.80;99.90;;;;;;5012510;28;20030;-82
2024/01/04 11:06:26;;;;;;;7.65;1.15;;;8.80;99.90;;;;;;5012066;28;20490;-81
2024/01/04 11:08:57;;;;;;;25.73;3.78;;;8.80;99.90;;;;;;5012509;28;20041;-84
2024/01/04 11:11:24;;;;;;;16.42;4.18;;;8.80;99.90;;;;;;4994459;28;20034;-81
2024/01/04 11:13:50;;;;;;;13.65;1.50;;;8.80;99.90;;;;;;5009810;28;20117;-83
2024/01/04 11:16:35;;;;;;;16.98;2.55;;;8.70;99.90;;;;;;5011748;28;20540;-80
2024/01/04 11:19:38;;;;;;;13.20;1.58;;;8.70;99.90;;;;;;5011539;28;20026;-82
2024/01/04 11:22:26;;;;;;;13.60;1.77;;;8.70;99.90;;;;;;4992333;28;20030;-84
2024/01/04 11:25:14;;;;;;;20.73;3.50;;;8.80;99.90;;;;;;4977429;28;20092;-84
2024/01/04 11:27:41;;;;;;;23.40;4.43;;;8.70;99.90;;;;;;4992724;28;20109;-83
2024/01/04 11:30:09;;;;;;;21.35;2.33;;;8.70;99.90;;;;;;5008851;28;20036;-81
2024/01/04 11:32:35;;;;;;;12.45;1.55;;;8.60;99.90;;;;;;5011434;28;20049;-81
2024/01/04 11:35:01;;;;;;;13.45;2.70;;;8.60;99.90;;;;;;4996559;28;20036;-83
2024/01/04 11:37:27;;;;;;;16.15;1.63;;;8.50;99.90;;;;;;5027090;28;20030;-81
2024/01/04 11:39:56;;;;;;;19.63;2.42;;;8.50;99.90;;;;;;5011537;28;20100;-83
2024/01/04 11:42:40;;;;;;;14.68;1.60;;;8.50;99.90;;;;;;5026577;28;20038;-80
2024/01/04 11:45:17;;;;;;;14.85;2.53;;;8.50;99.90;;;;;;4993254;28;20034;-81
2024/01/04 11:47:48;;;;;;;12.45;2.35;;;8.60;99.90;;;;;;5007786;28;20040;-82
2024/01/04 11:50:17;;;;;;;10.02;1.33;;;8.70;99.90;;;;;;5030136;28;20092;-82
2024/01/04 11:52:46;;;;;;;14.82;1.90;;;8.80;99.90;;;;;;5009967;28;20034;-82
2024/01/04 11:55:23;;;;;;;8.77;1.75;;;8.80;99.90;;;;;;5032916;28;20083;-85
2024/01/04 11:57:49;;;;;;;12.20;2.13;;;8.80;99.90;;;;;;5007992;28;20475;-81
2024/01/04 12:00:15;;;;;;;10.75;1.90;;;8.80;99.90;;;;;;5005452;28;20057;-81
2024/01/04 12:02:42;;;;;;;10.70;1.80;;;8.90;99.90;;;;;;5026090;28;20379;-81
2024/01/04 12:05:08;;;;;;;11.73;2.20;;;9.00;99.90;;;;;;5007894;28;20116;-81
2024/01/04 12:07:35;;;;;;;10.93;2.17;;;9.10;99.90;;;;;;4997393;28;20025;-80
2024/01/04 12:10:01;;;;;;;12.98;1.90;;;9.30;99.90;;;;;;4993389;28;20034;-80
2024/01/04 12:12:27;;;;;;;12.95;1.80;;;9.50;99.90;;;;;;5015248;28;20411;-80
2024/01/04 12:14:52;;;;;;;14.10;1.90;;;9.80;99.90;;;;;;5013822;28;20057;-82
2024/01/04 12:17:19;;;;;;;13.60;1.60;;;10.00;99.90;;;;;;4997340;28;20052;-83
2024/01/04 12:19:44;;;;;;;11.65;1.83;;;10.40;99.90;;;;;;4997083;28;20022;-84
2024/01/04 12:22:10;;;;;;;14.05;1.65;;;10.90;99.90;;;;;;5014921;28;20030;-82
2024/01/04 12:24:42;;;;;;;11.75;2.42;;;11.50;99.90;;;;;;4997666;28;20044;-84
2024/01/04 12:27:08;;;;;;;15.43;2.03;;;11.90;99.90;;;;;;4996805;28;20037;-80
2024/01/04 12:29:34;;;;;;;14.80;1.83;;;12.10;99.90;;;;;;5014202;28;20022;-80
2024/01/04 12:32:00;;;;;;;10.57;2.10;;;12.20;99.90;;;;;;5014432;28;20041;-81
2024/01/04 12:34:25;;;;;;;16.50;2.00;;;12.20;99.90;;;;;;4992194;28;20041;-82
2024/01/04 12:36:51;;;;;;;13.98;2.10;;;12.40;99.90;;;;;;4996692;28;20045;-84
2024/01/04 12:39:17;;;;;;;12.80;2.53;;;12.50;99.90;;;;;;5014648;28;20487;-80
2024/01/04 12:41:47;;;;;;;13.00;2.35;;;12.60;99.90;;;;;;5014397;28;20034;-80
2024/01/04 12:44:14;;;;;;;12.00;1.95;;;12.80;99.90;;;;;;5014261;28;20052;-82
2024/01/04 12:46:43;;;;;;;15.85;3.13;;;13.00;99.90;;;;;;5014516;28;20487;-81
2024/01/04 12:49:10;;;;;;;9.93;2.25;;;13.10;99.90;;;;;;4997601;28;20026;-82
2024/01/04 12:51:40;;;;;;;13.43;2.58;;;13.20;99.90;;;;;;5009451;28;20045;-81
2024/01/04 12:54:07;;;;;;;14.27;1.92;;;13.30;99.90;;;;;;5016173;28;20516;-82
2024/01/04 12:56:36;;;;;;;13.82;2.00;;;13.20;99.90;;;;;;5021503;28;20044;-82
2024/01/04 12:59:04;;;;;;;15.32;2.72;;;12.90;99.90;;;;;;5021862;28;20035;-79
2024/01/04 13:01:30;;;;;;;11.20;2.22;;;12.70;99.90;;;;;;5004299;28;20470;-83
2024/01/04 13:03:57;;;;;;;12.23;1.95;;;12.70;99.90;;;;;;4996219;28;20216;-80